Stations météo

réclame
Mon MeteoGroup
St.Catherine`s Point, Grande-Bretagne (3866): Température de l'air & dewpoint: 17.02.2018 06:00:00 - 23.02.2018 06:00:00 (GMT)St.Catherine`s Point, Grande-Bretagne (3866): Vitesse du vent & gusts: 17.02.2018 06:00:00 - 23.02.2018 06:00:00 (GMT)St.Catherine`s Point, Grande-Bretagne (3866): Direction du vent: 17.02.2018 06:00:00 - 23.02.2018 06:00:00 (GMT)St.Catherine`s Point, Grande-Bretagne (3866): reduced air pressure: 17.02.2018 06:00:00 - 23.02.2018 06:00:00 (GMT)St.Catherine`s Point, Grande-Bretagne (3866): Quantités de précipitations: 17.02.2018 06:00:00 - 23.02.2018 06:00:00 (GMT)
Date & Time tt [°C] td [°C] ff [km/h] ff [knt] fx [km/h] fx [knt] dd ppp [hPa] rr [mm]
23.02.2018 06:00:00 1,1 -2,2 22 12 - - ENE 1019,7 0,0
23.02.2018 05:00:00 1,6 -1,7 21 11 - - ENE 1019,8 0,0
23.02.2018 04:00:00 2,1 -1,6 22 12 - - ENE 1019,9 0,0
23.02.2018 03:00:00 3,3 -1,5 29 16 48 26 E 1020,1 0,0
23.02.2018 02:00:00 3,8 -1,6 34 18 46 25 E 1020,3 0,0
23.02.2018 01:00:00 3,5 -0,5 24 13 - - ENE 1020,6 0,0
23.02.2018 00:00:00 2,6 -0,7 21 11 - - ENE 1020,8 0,0
22.02.2018 23:00:00 1,9 -1,7 22 12 - - ENE 1021,2 0,0
22.02.2018 22:00:00 2,1 -2,1 21 11 - - ENE 1021,5 0,0
22.02.2018 21:00:00 2,0 -3,8 18 10 - - ENE 1021,7 0,0
22.02.2018 20:00:00 2,7 -4,1 21 11 - - ENE 1021,4 0,0
22.02.2018 19:00:00 3,4 -5,0 18 10 - - ENE 1021,4 0,0
22.02.2018 18:00:00 3,6 -3,8 22 12 - - ENE 1021,1 0,0
22.02.2018 17:00:00 4,5 -2,8 24 13 - - E 1021,1 0,0
22.02.2018 16:00:00 5,2 -0,9 29 16 - - E 1021,2 0,0
22.02.2018 15:00:00 5,7 0,0 29 16 - - E 1021,6 0,0
22.02.2018 14:00:00 6,1 0,1 28 15 - - E 1022,0 0,0
22.02.2018 13:00:00 5,9 0,0 29 16 - - E 1022,7 0,0
22.02.2018 12:00:00 4,2 -1,3 26 14 - - E 1023,0 0,0
22.02.2018 11:00:00 4,2 -0,8 26 14 - - E 1023,3 0,0
22.02.2018 10:00:00 3,8 -0,9 18 10 - - E 1023,3 0,0
22.02.2018 09:00:00 3,2 -1,3 16 9 - - ENE 1023,2 0,0
22.02.2018 08:00:00 2,7 -0,8 15 8 - - ENE 1023,2 0,0
22.02.2018 07:00:00 2,6 -0,8 21 11 - - ENE 1022,9 0,0
22.02.2018 06:00:00 4,0 0,6 18 10 - - E 1022,8 0,0
22.02.2018 05:00:00 4,2 1,9 16 9 - - ENE 1022,7 0,0
22.02.2018 04:00:00 4,2 2,3 9 5 - - NE 1022,9 0,0
22.02.2018 03:00:00 4,4 1,6 13 7 - - ENE 1023,1 0,0
22.02.2018 02:00:00 4,4 1,7 13 7 - - ENE 1023,6 0,0
22.02.2018 01:00:00 4,0 2,0 9 5 - - NE 1023,9 0,0
22.02.2018 00:00:00 4,2 2,0 11 6 - - NNE 1024,4 0,0
21.02.2018 23:00:00 4,4 2,0 8 4 - - ENE 1024,6 0,0
21.02.2018 22:00:00 4,7 1,9 8 4 - - ENE 1025,1 0,0
21.02.2018 21:00:00 4,8 1,4 8 4 - - ENE 1025,2 0,0
21.02.2018 20:00:00 4,7 0,8 5 3 - - NNE 1025,3 0,0
21.02.2018 19:00:00 4,1 0,2 8 4 - - NE 1025,2 0,0
21.02.2018 18:00:00 4,4 -0,1 2 1 - - N 1025,1 0,0
21.02.2018 17:00:00 5,7 0,6 8 4 - - ENE 1024,9 0,0
21.02.2018 16:00:00 6,7 2,4 15 8 - - E 1024,7 0,0
21.02.2018 15:00:00 7,3 2,9 15 8 - - E 1025,3 0,0
21.02.2018 14:00:00 7,5 2,6 15 8 - - ESE 1026,0 0,0
21.02.2018 13:00:00 7,7 2,1 24 13 - - E 1026,7 0,0
21.02.2018 12:00:00 6,7 0,8 22 12 - - E 1027,1 0,0
21.02.2018 11:00:00 6,4 0,8 16 9 - - ENE 1027,3 0,0
21.02.2018 10:00:00 5,5 1,3 13 7 - - ENE 1027,2 0,0
21.02.2018 09:00:00 4,0 0,7 15 8 - - NE 1026,8 0,0
21.02.2018 08:00:00 2,6 0,4 15 8 - - NE 1026,4 0,0
21.02.2018 07:00:00 2,7 0,3 13 7 - - NE 1026,5 0,0
21.02.2018 06:00:00 2,8 0,0 11 6 - - ENE 1026,2 0,0
21.02.2018 05:00:00 3,2 -0,2 11 6 - - ENE 1025,8 0,0
21.02.2018 04:00:00 4,6 0,5 21 11 - - E 1025,4 0,0
21.02.2018 03:00:00 5,5 2,6 11 6 - - E 1025,3 0,0
21.02.2018 02:00:00 5,4 2,2 11 6 - - NE 1025,4 0,0
21.02.2018 01:00:00 6,0 2,4 16 9 - - ENE 1025,0 0,0
21.02.2018 00:00:00 7,0 3,7 13 7 - - ENE 1024,3 0,0
20.02.2018 23:00:00 7,4 3,0 5 3 - - SSE 1023,8 0,0
20.02.2018 22:00:00 8,1 2,3 8 4 - - E 1023,4 0,0
20.02.2018 21:00:00 8,5 2,2 8 4 - - S 1023,0 0,0
20.02.2018 20:00:00 8,3 2,6 13 7 - - WNW 1022,9 0,0
20.02.2018 19:00:00 8,5 2,2 13 7 - - WNW 1022,5 0,0
20.02.2018 18:00:00 8,5 2,1 13 7 - - WNW 1022,1 0,0
20.02.2018 17:00:00 9,0 1,7 15 8 - - WNW 1021,9 0,0
20.02.2018 16:00:00 9,9 1,6 11 6 - - WNW 1021,6 0,0
20.02.2018 15:00:00 9,5 2,8 15 8 - - NW 1021,6 0,0
20.02.2018 14:00:00 10,5 3,5 18 10 52 28 NW 1021,2 0,0
20.02.2018 13:00:00 10,2 3,0 28 15 55 30 NW 1021,0 0,0
20.02.2018 12:00:00 9,3 2,9 28 15 55 30 NW 1021,0 0,0
20.02.2018 11:00:00 9,1 4,0 31 17 61 33 NW 1020,7 0,0
20.02.2018 10:00:00 8,2 4,3 26 14 - - NW 1020,6 0,0
20.02.2018 09:00:00 8,6 5,5 28 15 - - NW 1020,2 0,0
20.02.2018 08:00:00 9,0 6,8 16 9 - - NW 1019,8 0,0
20.02.2018 07:00:00 9,0 7,0 13 7 - - WNW 1019,5 0,0
20.02.2018 06:00:00 9,1 6,9 18 10 - - WNW 1018,7 0,0
20.02.2018 05:00:00 9,1 6,9 16 9 - - WNW 1018,6 0,0
20.02.2018 04:00:00 9,5 7,1 21 11 - - NW 1018,3 0,0
20.02.2018 03:00:00 9,5 7,4 15 8 - - WNW 1017,9 0,0
20.02.2018 02:00:00 9,1 7,6 13 7 - - WNW 1017,9 0,0
20.02.2018 01:00:00 8,6 7,6 11 6 - - W 1018,0 0,0
20.02.2018 00:00:00 8,8 7,8 11 6 - - WNW 1017,8 0,0
19.02.2018 23:00:00 9,1 8,1 11 6 - - WNW 1017,6 0,0
19.02.2018 22:00:00 9,3 8,4 15 8 - - WNW 1017,2 0,0
19.02.2018 21:00:00 9,4 8,8 11 6 - - W 1017,1 0,0
19.02.2018 20:00:00 8,4 7,8 13 7 - - W 1017,2 0,0
19.02.2018 19:00:00 9,3 8,6 11 6 - - W 1017,2 0,0
19.02.2018 18:00:00 9,2 8,5 16 9 - - WNW 1017,3 0,0
19.02.2018 17:00:00 9,4 8,8 16 9 - - WNW 1016,9 0,0
19.02.2018 16:00:00 9,2 8,8 15 8 - - NW 1016,9 0,0
19.02.2018 15:00:00 9,3 9,1 13 7 - - WNW 1016,8 0,0
19.02.2018 14:00:00 8,8 8,7 15 8 - - WNW 1017,0 0,0
19.02.2018 13:00:00 9,7 9,7 18 10 - - WNW 1017,1 0,0
19.02.2018 12:00:00 8,3 8,3 18 10 - - WNW 1017,6 0,0
19.02.2018 11:00:00 7,9 7,9 18 10 - - WNW 1017,7 0,4
19.02.2018 10:00:00 7,8 7,7 16 9 - - WNW 1017,7 0,0
19.02.2018 09:00:00 7,6 7,5 13 7 - - WNW 1018,0 0,0
19.02.2018 08:00:00 7,4 7,2 8 4 - - W 1018,0 0,0
19.02.2018 07:00:00 7,2 7,0 4 2 - - W 1017,8 0,2
19.02.2018 06:00:00 7,2 6,9 0 0 - - N 1017,8 0,4
19.02.2018 05:00:00 7,2 6,8 0 0 - - N 1018,0 0,0
19.02.2018 04:00:00 7,4 7,0 2 1 - - S 1018,2 0,2
19.02.2018 03:00:00 7,6 7,2 4 2 - - WNW 1018,3 0,4
19.02.2018 02:00:00 7,7 7,3 4 2 - - WNW 1018,8 0,0
19.02.2018 01:00:00 7,7 7,3 4 2 - - WNW 1019,0 0,0
19.02.2018 00:00:00 7,7 7,3 4 2 - - W 1019,4 0,0
18.02.2018 23:00:00 7,6 7,3 0 0 - - N 1019,6 0,0
18.02.2018 22:00:00 7,6 7,3 0 0 - - N 1019,8 0,0
18.02.2018 21:00:00 7,3 7,0 2 1 - - ENE 1020,1 0,0
18.02.2018 20:00:00 7,2 7,0 8 4 - - E 1020,4 0,0
18.02.2018 19:00:00 7,0 6,8 13 7 - - E 1020,4 0,0
18.02.2018 18:00:00 6,9 6,7 13 7 - - E 1020,5 0,0
18.02.2018 17:00:00 7,1 6,8 15 8 - - E 1020,4 0,0
18.02.2018 16:00:00 7,2 6,7 11 6 - - ESE 1020,6 0,0
18.02.2018 15:00:00 7,3 6,6 13 7 - - SE 1020,5 0,0
18.02.2018 14:00:00 7,4 6,7 13 7 - - SE 1020,6 0,0
18.02.2018 13:00:00 7,6 7,3 11 6 - - ESE 1020,9 0,0
18.02.2018 12:00:00 7,1 6,7 8 4 - - SSE 1021,3 0,0
18.02.2018 11:00:00 7,1 6,4 9 5 - - SSE 1021,4 0,0
18.02.2018 10:00:00 7,3 5,9 11 6 - - SE 1021,6 0,0
18.02.2018 09:00:00 7,3 5,5 9 5 - - SSE 1021,7 0,0
18.02.2018 08:00:00 7,3 5,8 9 5 - - SSE 1021,8 0,0
18.02.2018 07:00:00 7,2 6,1 9 5 - - SSE 1022,0 0,0
18.02.2018 06:00:00 6,9 6,2 5 3 - - E 1021,7 0,0
18.02.2018 05:00:00 6,9 6,2 5 3 - - ESE 1021,5 0,0
18.02.2018 04:00:00 6,8 5,9 5 3 - - ENE 1022,0 0,0
18.02.2018 03:00:00 6,9 5,7 2 1 - - NE 1022,4 0,2
18.02.2018 02:00:00 7,5 5,1 8 4 - - S 1022,8 0,0
18.02.2018 01:00:00 6,5 5,6 4 2 - - ENE 1022,8 0,0
18.02.2018 00:00:00 7,5 6,2 2 1 - - S 1023,0 0,0
17.02.2018 23:00:00 7,1 6,3 2 1 - - NE 1023,2 0,0
17.02.2018 22:00:00 6,7 5,8 2 1 - - N 1023,4 0,0
17.02.2018 21:00:00 6,8 5,7 2 1 - - NW 1023,3 0,0
17.02.2018 20:00:00 7,6 6,0 4 2 - - S 1023,4 0,0
17.02.2018 19:00:00 7,4 5,7 2 1 - - NNE 1023,4 0,0
17.02.2018 18:00:00 6,9 5,2 2 1 - - SSW 1023,1 0,0
17.02.2018 17:00:00 7,4 4,7 5 3 - - SW 1022,7 0,0
17.02.2018 16:00:00 8,3 5,1 9 5 - - SW 1022,8 0,0
17.02.2018 15:00:00 8,6 6,1 4 2 - - SSE 1022,7 0,0
17.02.2018 14:00:00 8,8 6,0 4 2 - - SSW 1023,0 0,0
17.02.2018 13:00:00 8,4 5,9 4 2 - - S 1023,2 0,0
17.02.2018 12:00:00 9,1 6,0 5 3 - - ESE 1023,0 0,0
17.02.2018 11:00:00 9,2 6,1 5 3 - - ESE 1022,6 0,0
17.02.2018 10:00:00 9,1 5,6 5 3 - - ESE 1022,0 0,0
17.02.2018 09:00:00 8,2 5,3 5 3 - - ESE 1021,7 0,0
17.02.2018 08:00:00 5,7 3,2 9 5 - - NE 1021,4 0,0
17.02.2018 07:00:00 4,8 2,6 9 5 - - NE 1021,0 0,0
17.02.2018 06:00:00 4,8 2,3 11 6 - - NE 1020,6 0,0

tt = Température de l'air
td = dewpoint
ff = Vitesse du vent
fx = gusts
dd = Direction du vent
ppp = reduced air pressure
rr = Quantités de précipitations

stations d'obs. à proximité